Estherville, Iowa
Current Conditions -  °F | °C
As of 8:34 AM on Tuesday 21 Oct 2014 (Local Time) from KEST Reporting Station
Haze Haze  
Wind Chill: 33°   Ceiling: Unl
Heat Index: 33°   Visibility: 3mi
Dew Point: 33°   Wind: 3mph
Humidity: 100%   Direction: 120°ESE
Pressure: 30.14"   Gusts: NA
Location:  43.4°N, 94.84°W
Report Text: KEST 211334Z AUTO 12003KT 3SM BR CLR 01/01 A3014 RMK AO2 T00060006
Loading
Personal Weather Stations






























Interactive Weather Map
Tropical Storm Tracking
New forecast layout! Learn more

10-Day Weather Forecast

Advertisements
Track Severe Weather on mobile